Time;durP1;ratioP1;P1;durP2;ratioP2;P2;SDS_P1;SDS_P2;PMS_P1;PMS_P2;Temp;Humidity;BMP_temperature;BMP_pressure;BME280_temperature;BME280_humidity;BME280_pressure;Samples;Min_cycle;Max_cycle;Signal;HPM_P1;HPM_P2
2021/06/17 00:00:21;;;;;;;12.10;6.80;;;;;;;20.38;43.35;101139.16;5008599;28;20034;-69
2021/06/17 00:02:47;;;;;;;8.70;7.03;;;;;;;20.31;43.70;101138.78;5021348;28;20059;-69
2021/06/17 00:05:16;;;;;;;14.18;7.80;;;;;;;20.27;43.85;101134.66;5010144;28;20033;-69
2021/06/17 00:07:42;;;;;;;12.27;7.47;;;;;;;20.28;43.98;101141.66;5005057;28;20092;-69
2021/06/17 00:10:18;;;;;;;9.93;7.82;;;;;;;20.20;44.18;101138.72;5011643;28;20494;-69
2021/06/17 00:12:44;;;;;;;11.80;8.30;;;;;;;20.16;44.58;101138.09;5009289;28;20164;-68
2021/06/17 00:15:11;;;;;;;9.45;7.68;;;;;;;20.09;44.63;101136.91;5004821;28;20121;-68
2021/06/17 00:17:39;;;;;;;8.10;7.28;;;;;;;20.15;44.63;101143.53;5009736;28;20030;-68
2021/06/17 00:20:06;;;;;;;10.25;7.88;;;;;;;20.17;44.64;101129.16;5008279;28;20034;-69
2021/06/17 00:22:33;;;;;;;11.88;8.45;;;;;;;20.10;44.91;101134.13;5008240;28;20041;-68
2021/06/17 00:24:59;;;;;;;8.40;7.03;;;;;;;20.07;45.10;101133.50;5010734;28;20030;-68
2021/06/17 00:27:26;;;;;;;10.82;7.65;;;;;;;20.01;45.39;101129.50;5008194;28;20723;-68
2021/06/17 00:29:52;;;;;;;11.63;8.63;;;;;;;19.96;45.52;101125.53;5010286;28;20041;-67
2021/06/17 00:32:17;;;;;;;13.60;9.73;;;;;;;19.88;45.76;101128.75;5008554;28;20040;-66
2021/06/17 00:34:46;;;;;;;14.10;9.02;;;;;;;19.97;46.03;101121.91;5009175;28;20026;-68
2021/06/17 00:37:11;;;;;;;11.07;8.90;;;;;;;19.98;46.04;101128.91;5012335;28;20037;-68
2021/06/17 00:39:37;;;;;;;9.27;7.32;;;;;;;19.96;45.79;101126.38;5007015;28;20026;-68
2021/06/17 00:42:04;;;;;;;8.63;7.72;;;;;;;20.08;45.70;101125.44;5006002;28;20438;-67
2021/06/17 00:44:30;;;;;;;13.55;10.02;;;;;;;19.96;46.14;101121.06;5007958;28;20026;-67
2021/06/17 00:46:55;;;;;;;15.60;10.25;;;;;;;19.91;46.52;101121.41;5007380;28;20429;-67
2021/06/17 00:49:21;;;;;;;13.35;11.15;;;;;;;19.90;47.02;101126.81;5007100;28;20033;-67
2021/06/17 00:51:48;;;;;;;12.55;11.10;;;;;;;19.90;46.98;101126.81;5008673;28;20132;-66
2021/06/17 00:54:31;;;;;;;14.25;11.07;;;;;;;19.91;46.91;101123.22;5007404;28;20025;-68
2021/06/17 00:57:06;;;;;;;14.57;11.18;;;;;;;19.97;46.86;101116.59;5005902;28;20100;-68
2021/06/17 00:59:32;;;;;;;13.57;12.02;;;;;;;19.94;47.08;101122.97;5005131;28;20068;-68
2021/06/17 01:01:58;;;;;;;12.38;10.90;;;;;;;19.90;47.06;101124.16;5005123;28;20038;-68
2021/06/17 01:04:26;;;;;;;17.33;14.15;;;;;;;19.86;47.42;101122.72;5006691;28;20060;-68
2021/06/17 01:06:56;;;;;;;14.15;12.18;;;;;;;19.86;47.50;101125.38;5007101;28;20034;-68
2021/06/17 01:09:47;;;;;;;16.55;13.43;;;;;;;19.77;47.56;101123.41;5010872;28;20048;-69
2021/06/17 01:12:34;;;;;;;15.23;13.35;;;;;;;19.75;47.78;101112.06;5012894;28;20049;-69
2021/06/17 01:15:06;;;;;;;19.63;12.90;;;;;;;19.76;47.96;101116.44;5009536;28;20041;-68
2021/06/17 01:17:36;;;;;;;18.50;13.73;;;;;;;19.79;47.85;101121.50;5009996;28;20160;-69
2021/06/17 01:20:13;;;;;;;15.70;14.02;;;;;;;19.79;47.82;101113.53;5014211;28;20032;-67
2021/06/17 01:23:02;;;;;;;17.63;13.52;;;;;;;19.74;48.12;101111.22;5012251;28;20403;-69
2021/06/17 01:25:46;;;;;;;18.77;13.30;;;;;;;19.81;47.82;101116.91;4998716;28;20033;-70
2021/06/17 01:28:17;;;;;;;14.85;13.40;;;;;;;19.77;47.86;101111.03;5017819;28;20049;-68
2021/06/17 01:30:54;;;;;;;15.93;12.88;;;;;;;19.70;47.97;101109.75;5008589;28;20029;-67
2021/06/17 01:33:23;;;;;;;18.30;14.30;;;;;;;19.46;48.78;101113.28;5011246;28;20034;-67
2021/06/17 01:35:53;;;;;;;16.25;13.35;;;;;;;19.67;48.22;101105.53;5009401;28;20109;-68
2021/06/17 01:38:23;;;;;;;17.90;13.80;;;;;;;19.64;48.28;101103.13;5011669;28;20032;-67
2021/06/17 01:40:50;;;;;;;15.73;13.27;;;;;;;19.64;48.46;101099.66;5008567;28;20119;-67
2021/06/17 01:43:17;;;;;;;17.70;15.07;;;;;;;19.62;48.47;101106.88;5007936;28;20049;-67
2021/06/17 01:45:45;;;;;;;17.90;13.90;;;;;;;19.58;48.40;101092.97;5012191;28;20033;-67
2021/06/17 01:48:11;;;;;;;18.30;15.13;;;;;;;19.56;48.56;101102.84;5014196;28;20052;-67
2021/06/17 01:50:37;;;;;;;17.27;13.95;;;;;;;19.63;48.62;101093.47;5014930;28;20029;-67
2021/06/17 01:53:04;;;;;;;17.80;14.43;;;;;;;19.63;48.23;101093.47;5011252;28;20034;-67
2021/06/17 01:55:33;;;;;;;17.55;14.30;;;;;;;19.59;48.55;101096.47;5010262;28;20127;-68
2021/06/17 01:58:08;;;;;;;20.80;15.13;;;;;;;19.57;48.60;101096.59;5010835;28;20037;-68
2021/06/17 02:00:36;;;;;;;24.15;15.93;;;;;;;19.29;49.47;101098.59;5009442;28;20080;-68
2021/06/17 02:03:06;;;;;;;17.70;14.68;;;;;;;19.48;48.90;101089.31;5009441;28;20030;-68
2021/06/17 02:05:33;;;;;;;20.58;15.60;;;;;;;19.46;49.00;101085.94;5012090;28;20048;-68
2021/06/17 02:08:00;;;;;;;18.10;14.35;;;;;;;19.41;49.21;101082.75;5011928;28;20037;-66
2021/06/17 02:10:28;;;;;;;19.38;15.52;;;;;;;19.42;49.00;101082.66;5008879;28;20058;-66
2021/06/17 02:12:55;;;;;;;19.42;14.40;;;;;;;19.42;49.20;101080.00;5010639;28;20044;-66
2021/06/17 02:15:25;;;;;;;17.55;15.02;;;;;;;19.38;49.32;101081.19;5009897;28;20034;-66
2021/06/17 02:17:52;;;;;;;17.02;14.30;;;;;;;19.36;49.51;101082.25;5027156;28;20021;-67
2021/06/17 02:20:19;;;;;;;15.35;13.70;;;;;;;19.33;49.49;101077.19;5010475;28;20042;-67
2021/06/17 02:22:46;;;;;;;17.98;15.15;;;;;;;19.43;49.21;101075.53;5008821;28;20135;-66
2021/06/17 02:25:16;;;;;;;16.25;14.07;;;;;;;19.41;49.06;101082.75;5009606;28;20033;-67
2021/06/17 02:27:47;;;;;;;17.83;15.18;;;;;;;19.37;49.29;101073.34;5007948;28;20034;-67
2021/06/17 02:30:15;;;;;;;18.75;15.25;;;;;;;19.23;49.77;101085.84;5009249;28;20056;-67
2021/06/17 02:32:49;;;;;;;17.25;14.88;;;;;;;19.37;49.33;101081.28;5009400;28;20040;-68
2021/06/17 02:35:20;;;;;;;18.83;14.55;;;;;;;19.28;49.51;101078.38;5010013;28;20048;-68
2021/06/17 02:37:50;;;;;;;17.90;16.02;;;;;;;19.29;49.55;101076.56;5012888;28;21852;-67
2021/06/17 02:40:18;;;;;;;18.67;14.60;;;;;;;19.25;49.80;101083.88;5010317;28;20049;-69
2021/06/17 02:42:45;;;;;;;17.98;14.13;;;;;;;19.26;49.81;101075.00;5010778;28;20036;-67
2021/06/17 02:45:14;;;;;;;18.20;14.35;;;;;;;19.28;49.63;101083.69;5010410;28;20500;-67
2021/06/17 02:47:40;;;;;;;18.25;15.68;;;;;;;19.32;49.55;101086.09;5013052;28;20033;-67
2021/06/17 02:50:06;;;;;;;18.58;14.50;;;;;;;19.30;49.63;101086.19;5010287;28;20033;-67
2021/06/17 02:52:31;;;;;;;20.35;14.80;;;;;;;19.24;49.66;101087.50;5010064;28;20566;-68
2021/06/17 02:54:57;;;;;;;19.23;15.35;;;;;;;19.24;49.66;101087.50;5011112;28;20116;-65
2021/06/17 02:57:38;;;;;;;16.80;14.13;;;;;;;19.30;49.68;101087.06;5008852;28;20105;-68
2021/06/17 03:00:18;;;;;;;19.13;16.38;;;;;;;19.44;49.06;101083.38;5012532;28;20044;-67
2021/06/17 03:03:03;;;;;;;16.73;14.65;;;;;;;19.43;49.29;101075.53;5009465;28;20044;-69
2021/06/17 03:05:46;;;;;;;21.27;16.13;;;;;;;19.41;49.37;101082.75;5011289;28;20080;-67
2021/06/17 03:08:26;;;;;;;16.63;14.82;;;;;;;19.35;49.21;101075.28;5010713;28;20048;-68
2021/06/17 03:10:57;;;;;;;17.17;14.55;;;;;;;19.42;49.09;101080.00;5009970;28;20061;-69
2021/06/17 03:13:28;;;;;;;17.75;15.23;;;;;;;19.41;49.34;101078.31;5008612;28;20101;-69
2021/06/17 03:15:53;;;;;;;25.00;16.40;;;;;;;19.41;49.28;101077.44;5008887;28;20036;-68
2021/06/17 03:18:21;;;;;;;20.10;15.85;;;;;;;19.32;49.70;101075.50;5005194;28;20037;-67
2021/06/17 03:20:49;;;;;;;20.27;16.17;;;;;;;19.40;49.07;101066.00;5024359;28;20041;-68
2021/06/17 03:23:18;;;;;;;16.13;14.48;;;;;;;19.48;49.00;101068.94;5007824;28;20053;-70
2021/06/17 03:25:49;;;;;;;21.88;15.77;;;;;;;19.48;48.92;101068.09;4997269;28;20030;-69
2021/06/17 03:28:18;;;;;;;15.40;13.48;;;;;;;19.54;48.79;101064.97;5010699;28;20065;-68
2021/06/17 03:30:49;;;;;;;15.75;14.00;;;;;;;19.49;49.20;101069.78;5008833;28;20589;-68
2021/06/17 03:33:22;;;;;;;17.45;14.60;;;;;;;19.48;48.80;101068.09;5012856;28;20069;-67
2021/06/17 03:35:49;;;;;;;23.75;15.65;;;;;;;19.34;49.28;101065.63;5008595;28;20037;-66
2021/06/17 03:38:15;;;;;;;17.50;14.63;;;;;;;19.34;49.31;101062.97;5008783;28;20490;-67
2021/06/17 03:40:47;;;;;;;22.15;14.82;;;;;;;19.42;49.08;101072.06;5009923;28;20049;-67
2021/06/17 03:43:15;;;;;;;20.27;14.60;;;;;;;19.44;49.16;101067.47;5009644;28;20112;-67
2021/06/17 03:45:42;;;;;;;21.70;14.05;;;;;;;19.36;49.55;101064.53;5009632;28;20510;-70
2021/06/17 03:48:08;;;;;;;15.90;13.98;;;;;;;19.35;49.29;101064.69;5011602;28;20048;-67
2021/06/17 03:50:35;;;;;;;16.90;14.52;;;;;;;19.31;49.60;101056.09;5009121;28;20034;-67
2021/06/17 03:53:02;;;;;;;22.60;15.48;;;;;;;19.36;49.40;101063.72;4988263;28;20418;-69
2021/06/17 03:55:27;;;;;;;21.45;14.23;;;;;;;19.42;48.87;101058.78;5007116;28;20030;-69
2021/06/17 03:57:56;;;;;;;23.67;15.23;;;;;;;19.37;49.30;101062.72;5008388;28;20084;-69
2021/06/17 04:00:24;;;;;;;15.85;14.07;;;;;;;19.47;49.07;101061.09;5010039;28;20041;-68
2021/06/17 04:02:53;;;;;;;16.73;14.98;;;;;;;19.47;49.09;101055.78;5011493;28;20027;-69
2021/06/17 04:05:19;;;;;;;19.10;14.77;;;;;;;19.44;49.20;101056.03;5009090;28;20061;-69
2021/06/17 04:07:47;;;;;;;16.63;14.60;;;;;;;19.52;48.99;101053.63;5009675;28;20486;-68
2021/06/17 04:10:16;;;;;;;15.52;13.88;;;;;;;19.50;48.99;101056.44;5009533;28;20529;-69
2021/06/17 04:12:42;;;;;;;18.25;15.55;;;;;;;19.62;48.62;101057.34;5010569;28;20079;-69
2021/06/17 04:15:12;;;;;;;17.00;14.80;;;;;;;19.38;49.19;101067.09;5006546;28;20068;-69
2021/06/17 04:17:40;;;;;;;17.33;14.80;;;;;;;19.67;48.70;101065.78;5021642;28;20029;-69
2021/06/17 04:20:10;;;;;;;18.15;14.77;;;;;;;19.67;48.66;101068.41;5010711;28;20628;-69
2021/06/17 04:22:39;;;;;;;23.05;15.52;;;;;;;19.75;48.55;101059.91;5008100;28;20033;-69
2021/06/17 04:25:08;;;;;;;16.05;14.20;;;;;;;19.59;48.94;101067.31;5008874;28;20038;-70
2021/06/17 04:27:35;;;;;;;16.55;14.05;;;;;;;19.66;48.78;101066.75;5006257;28;20054;-69
2021/06/17 04:30:01;;;;;;;15.32;13.77;;;;;;;19.94;47.81;101064.63;5007878;28;20041;-70
2021/06/17 04:32:27;;;;;;;16.27;14.55;;;;;;;19.96;47.80;101068.00;5006381;28;20037;-71
2021/06/17 04:34:55;;;;;;;18.83;15.73;;;;;;;20.06;47.58;101068.13;5011004;28;20033;-71
2021/06/17 04:37:24;;;;;;;17.52;15.13;;;;;;;20.27;47.14;101076.28;5007357;28;20563;-71
2021/06/17 04:39:53;;;;;;;16.75;14.65;;;;;;;20.20;47.45;101080.34;5007785;28;20028;-72
2021/06/17 04:42:19;;;;;;;15.35;13.13;;;;;;;20.16;47.63;101076.25;5002015;28;20041;-68
2021/06/17 04:44:45;;;;;;;17.55;14.20;;;;;;;20.52;46.94;101080.50;5007740;28;20065;-69
2021/06/17 04:47:13;;;;;;;19.33;13.77;;;;;;;20.69;46.14;101076.50;5009392;28;20119;-68
2021/06/17 04:49:39;;;;;;;15.38;12.82;;;;;;;20.76;46.45;101085.66;5009449;28;20041;-71
2021/06/17 04:52:08;;;;;;;14.50;12.65;;;;;;;21.18;45.25;101080.53;5009183;28;20111;-69
2021/06/17 04:54:35;;;;;;;16.38;13.23;;;;;;;21.07;45.59;101083.22;5007389;28;20079;-67
2021/06/17 04:57:00;;;;;;;15.85;12.68;;;;;;;21.58;44.30;101085.25;5007048;28;20598;-68
2021/06/17 04:59:26;;;;;;;17.95;14.82;;;;;;;21.52;44.09;101080.41;5024142;28;20033;-66
2021/06/17 05:01:52;;;;;;;15.27;12.77;;;;;;;21.74;44.02;101079.47;5009717;28;20037;-68
2021/06/17 05:04:18;;;;;;;17.88;12.90;;;;;;;21.92;43.80;101080.56;5007762;28;20149;-69
2021/06/17 05:06:58;;;;;;;14.75;13.20;;;;;;;22.07;43.26;101086.41;5010483;28;20034;-68
2021/06/17 05:12:09;;;;;;;15.95;13.02;;;;;;;23.30;40.68;101080.94;5006489;28;20034;-65
2021/06/17 05:14:35;;;;;;;12.90;11.57;;;;;;;23.20;41.16;101086.22;5006839;28;20541;-66
2021/06/17 05:17:03;;;;;;;17.15;12.75;;;;;;;24.14;39.18;101090.09;5011086;28;20044;-66
2021/06/17 05:19:29;;;;;;;14.85;12.05;;;;;;;25.42;36.52;101092.78;5012986;28;20122;-69
2021/06/17 05:21:54;;;;;;;12.80;11.50;;;;;;;25.95;35.54;101080.31;5010772;28;20523;-68
2021/06/17 05:24:20;;;;;;;15.63;11.85;;;;;;;26.87;33.47;101088.63;5005604;28;20040;-66
2021/06/17 05:26:45;;;;;;;12.45;9.63;;;;;;;27.75;32.19;101079.19;5004030;28;20037;-69
2021/06/17 05:29:11;;;;;;;11.85;10.60;;;;;;;28.55;30.39;101081.81;5007754;28;20030;-68
2021/06/17 05:31:36;;;;;;;11.13;10.00;;;;;;;28.30;30.83;101086.44;5006698;28;20244;-68
2021/06/17 05:34:02;;;;;;;12.73;11.10;;;;;;;28.27;31.11;101081.41;5007679;28;20044;-68
2021/06/17 05:36:28;;;;;;;11.73;9.48;;;;;;;28.57;31.04;101082.47;5010562;28;20060;-67
2021/06/17 05:38:53;;;;;;;13.98;10.35;;;;;;;30.06;27.98;101083.84;5009209;28;20483;-68
2021/06/17 05:41:19;;;;;;;12.90;9.95;;;;;;;30.75;27.48;101088.09;5009167;28;20041;-69
2021/06/17 05:43:45;;;;;;;11.43;9.38;;;;;;;30.41;27.47;101089.53;5008870;28;20045;-65
2021/06/17 05:46:10;;;;;;;13.18;10.27;;;;;;;30.30;27.60;101087.31;5007546;28;20045;-69
2021/06/17 05:48:36;;;;;;;9.32;8.38;;;;;;;30.39;27.90;101100.50;5011349;28;20069;-68
2021/06/17 05:51:02;;;;;;;15.70;10.10;;;;;;;30.79;27.57;101102.88;5008437;28;20022;-70
2021/06/17 05:53:27;;;;;;;11.55;9.95;;;;;;;31.29;26.75;101102.97;5008606;28;20037;-69
2021/06/17 05:55:53;;;;;;;9.20;8.45;;;;;;;31.82;25.69;101106.13;5012256;28;20026;-68
2021/06/17 05:58:18;;;;;;;8.55;7.68;;;;;;;32.84;24.90;101093.78;5015054;28;20030;-70
2021/06/17 06:00:44;;;;;;;9.60;8.73;;;;;;;32.69;24.01;101107.44;5012341;28;20112;-70
2021/06/17 06:03:09;;;;;;;9.73;8.65;;;;;;;32.49;24.43;101098.44;5012972;28;20038;-69
2021/06/17 06:05:35;;;;;;;10.38;9.30;;;;;;;33.16;23.76;101103.00;5008530;28;20552;-68
2021/06/17 06:08:08;;;;;;;13.32;9.82;;;;;;;32.72;24.42;101098.94;5011422;28;20052;-69
2021/06/17 06:10:34;;;;;;;10.65;9.55;;;;;;;31.95;25.33;101100.00;5008843;28;20379;-68
2021/06/17 06:13:00;;;;;;;14.13;10.15;;;;;;;31.77;25.64;101095.09;5013047;28;20056;-67
2021/06/17 06:15:32;;;;;;;8.80;8.00;;;;;;;32.23;25.20;101097.25;5009565;28;20036;-68
2021/06/17 06:18:03;;;;;;;8.25;7.45;;;;;;;32.27;24.80;101101.22;5014836;28;20041;-67
2021/06/17 06:20:29;;;;;;;10.73;8.27;;;;;;;31.83;25.20;101095.13;5011687;28;20036;-68
2021/06/17 06:22:54;;;;;;;11.55;8.77;;;;;;;32.64;24.18;101085.59;5014524;28;20033;-67
2021/06/17 06:25:20;;;;;;;8.52;7.45;;;;;;;32.57;24.31;101088.28;5008596;28;20092;-67
2021/06/17 06:27:45;;;;;;;8.90;7.97;;;;;;;32.91;23.82;101085.69;5006025;28;20112;-68
2021/06/17 06:30:11;;;;;;;8.82;7.93;;;;;;;33.29;23.60;101082.41;5005164;28;20041;-68
2021/06/17 06:32:37;;;;;;;10.82;8.00;;;;;;;33.25;23.53;101082.78;5010953;28;20026;-68
2021/06/17 06:35:05;;;;;;;8.25;7.45;;;;;;;33.19;23.58;101086.34;5011486;28;20038;-68
2021/06/17 06:37:30;;;;;;;8.68;7.88;;;;;;;33.30;23.73;101079.47;5009959;28;20033;-68
2021/06/17 06:39:56;;;;;;;10.65;7.70;;;;;;;33.34;23.54;101088.03;5008179;28;20041;-69
2021/06/17 06:42:21;;;;;;;8.27;7.45;;;;;;;34.17;22.25;101082.09;5010014;28;20113;-68
2021/06/17 06:44:47;;;;;;;11.93;7.45;;;;;;;33.82;22.69;101087.81;5009256;28;20075;-68
2021/06/17 06:47:12;;;;;;;9.82;7.80;;;;;;;33.75;23.11;101078.84;5007874;28;20104;-67
2021/06/17 06:49:38;;;;;;;8.10;7.28;;;;;;;33.90;22.46;101084.03;5014713;28;20040;-67
2021/06/17 06:52:04;;;;;;;7.35;6.65;;;;;;;34.69;22.00;101072.91;5011732;28;20061;-70
2021/06/17 06:54:29;;;;;;;8.65;6.85;;;;;;;35.28;21.52;101083.59;5013591;28;20037;-68
2021/06/17 06:56:54;;;;;;;14.02;7.15;;;;;;;34.57;21.99;101081.97;5013024;28;20570;-68
2021/06/17 06:59:20;;;;;;;7.45;6.43;;;;;;;34.34;22.07;101086.00;5009226;28;20033;-68
2021/06/17 07:01:46;;;;;;;9.25;7.95;;;;;;;34.49;21.58;101083.84;5011601;28;20045;-68
2021/06/17 07:04:12;;;;;;;8.90;7.10;;;;;;;34.40;21.79;101085.16;5022243;28;20045;-69
2021/06/17 07:06:39;;;;;;;6.93;6.22;;;;;;;34.42;21.93;101096.63;5009595;28;20537;-68
2021/06/17 07:09:06;;;;;;;7.22;6.20;;;;;;;35.76;20.63;101090.25;5006117;28;20042;-68
2021/06/17 07:11:32;;;;;;;7.70;6.85;;;;;;;36.41;19.72;101093.34;5006306;28;20034;-68
2021/06/17 07:13:58;;;;;;;7.65;6.47;;;;;;;34.14;22.91;101098.81;5005533;28;20572;-67
2021/06/17 07:16:25;;;;;;;6.95;6.28;;;;;;;36.01;20.71;101103.84;5014636;28;20100;-69
2021/06/17 07:18:50;;;;;;;6.18;5.68;;;;;;;36.72;19.45;101099.66;5001294;28;20241;-68
2021/06/17 07:21:17;;;;;;;7.72;6.20;;;;;;;36.22;19.77;101107.97;5012377;28;20034;-70
2021/06/17 07:23:50;;;;;;;8.23;6.80;;;;;;;35.43;20.31;101103.13;5009637;28;20037;-68
2021/06/17 07:26:19;;;;;;;8.23;7.40;;;;;;;35.46;20.81;101101.84;5012293;28;20045;-68
2021/06/17 07:28:44;;;;;;;10.63;6.57;;;;;;;35.63;20.75;101100.22;5010259;28;20034;-70
2021/06/17 07:31:09;;;;;;;6.13;5.57;;;;;;;35.57;20.68;101101.13;5013842;28;20052;-68
2021/06/17 07:33:35;;;;;;;11.95;6.63;;;;;;;36.26;19.96;101091.00;5012041;28;20026;-68
2021/06/17 07:36:00;;;;;;;6.32;4.97;;;;;;;37.33;18.62;101101.22;5013726;28;20068;-69
2021/06/17 07:38:26;;;;;;;6.60;5.93;;;;;;;37.39;18.91;101098.59;5011330;28;20121;-70
2021/06/17 07:40:51;;;;;;;6.45;5.95;;;;;;;36.84;18.91;101095.06;5004358;28;20041;-69
2021/06/17 07:43:17;;;;;;;6.25;5.75;;;;;;;35.82;19.92;101097.56;5013996;28;20044;-69
2021/06/17 07:45:42;;;;;;;5.95;5.32;;;;;;;36.24;19.56;101097.75;5003599;28;20026;-70
2021/06/17 07:48:11;;;;;;;8.57;6.13;;;;;;;36.69;19.30;101092.75;5007034;28;20095;-69
2021/06/17 07:50:39;;;;;;;6.32;5.47;;;;;;;37.02;19.09;101094.16;5009731;28;20036;-70
2021/06/17 07:53:05;;;;;;;6.10;5.30;;;;;;;38.16;18.19;101093.81;5003814;28;20257;-71
2021/06/17 07:55:30;;;;;;;6.50;5.55;;;;;;;37.98;17.62;101085.00;5010114;28;20099;-69
2021/06/17 07:57:56;;;;;;;6.13;5.63;;;;;;;36.94;19.18;101087.16;5001161;28;20038;-68
2021/06/17 08:00:22;;;;;;;5.75;5.07;;;;;;;36.44;19.18;101076.53;5003581;28;20065;-68
2021/06/17 08:02:47;;;;;;;12.07;6.38;;;;;;;36.57;19.25;101080.16;5006395;28;20034;-68
2021/06/17 08:05:15;;;;;;;6.03;5.63;;;;;;;36.99;18.94;101078.28;5008414;28;20095;-69
2021/06/17 08:07:41;;;;;;;5.60;5.10;;;;;;;36.42;19.29;101086.00;5004690;28;20068;-69
2021/06/17 08:10:08;;;;;;;7.35;6.03;;;;;;;36.51;19.35;101074.53;5007013;28;20073;-70
2021/06/17 08:12:34;;;;;;;6.20;5.63;;;;;;;35.52;20.25;101071.06;5007750;28;20038;-69
2021/06/17 08:14:59;;;;;;;5.80;5.30;;;;;;;36.27;19.31;101067.34;5007111;28;20095;-69
2021/06/17 08:17:25;;;;;;;5.82;5.28;;;;;;;36.08;19.74;101070.06;5005297;28;20087;-69
2021/06/17 08:19:50;;;;;;;5.57;5.07;;;;;;;36.19;19.81;101064.94;5004921;28;20079;-70
2021/06/17 08:22:16;;;;;;;6.97;6.28;;;;;;;36.05;19.78;101059.66;5011501;28;20489;-68
2021/06/17 08:24:44;;;;;;;5.90;5.40;;;;;;;36.03;19.79;101063.66;5009555;28;20132;-69
2021/06/17 08:27:10;;;;;;;9.60;5.78;;;;;;;36.49;19.64;101064.94;4999724;28;20034;-69
2021/06/17 08:29:36;;;;;;;5.20;4.80;;;;;;;36.48;19.89;101050.53;5015272;28;20077;-68
2021/06/17 08:32:06;;;;;;;6.00;4.85;;;;;;;36.81;19.92;101051.09;5012524;28;20068;-68
2021/06/17 08:34:31;;;;;;;5.83;5.20;;;;;;;37.13;19.40;101044.31;5009852;28;20045;-70
2021/06/17 08:36:57;;;;;;;6.22;5.63;;;;;;;37.06;18.51;101050.97;5017005;28;20558;-71
2021/06/17 08:39:23;;;;;;;5.32;4.88;;;;;;;36.42;19.80;101043.28;5011686;28;20033;-69
2021/06/17 08:41:49;;;;;;;6.80;6.07;;;;;;;36.61;19.29;101043.22;5010550;28;20121;-70
2021/06/17 08:44:15;;;;;;;7.45;5.28;;;;;;;36.59;19.69;101039.91;5010444;28;20828;-68
2021/06/17 08:46:41;;;;;;;6.95;5.80;;;;;;;36.71;19.84;101048.97;5008939;28;20052;-69
2021/06/17 08:49:08;;;;;;;8.38;5.63;;;;;;;36.73;19.44;101049.56;5008983;28;20042;-70
2021/06/17 08:51:40;;;;;;;5.65;5.20;;;;;;;37.60;18.79;101046.25;5007892;28;20478;-69
2021/06/17 08:54:09;;;;;;;5.15;4.43;;;;;;;37.87;18.64;101045.75;5008923;28;20355;-70
2021/06/17 08:56:35;;;;;;;9.77;4.70;;;;;;;37.97;18.03;101051.44;5008431;28;20026;-69
2021/06/17 08:59:05;;;;;;;5.68;5.15;;;;;;;37.02;19.02;101052.47;4998464;28;20038;-69
2021/06/17 09:01:33;;;;;;;5.60;4.93;;;;;;;37.22;18.59;101055.72;5005437;28;20029;-70
2021/06/17 09:03:59;;;;;;;6.35;5.75;;;;;;;37.19;19.10;101050.75;5010751;28;20041;-70
2021/06/17 09:06:25;;;;;;;5.60;4.72;;;;;;;37.69;19.27;101055.72;5006723;28;20038;-69
2021/06/17 09:09:02;;;;;;;5.20;4.80;;;;;;;38.42;18.27;101050.69;5010261;28;20026;-70
2021/06/17 09:11:28;;;;;;;5.85;4.90;;;;;;;38.08;17.86;101052.44;5014991;28;20033;-70
2021/06/17 09:14:18;;;;;;;4.63;4.22;;;;;;;37.83;17.67;101039.94;5016131;28;20422;-71
2021/06/17 09:16:56;;;;;;;7.72;5.10;;;;;;;37.72;18.39;101040.75;5008380;28;20018;-69
2021/06/17 09:19:47;;;;;;;5.85;4.45;;;;;;;38.39;17.31;101048.44;5006881;28;20037;-71
2021/06/17 09:22:15;;;;;;;5.28;4.88;;;;;;;38.10;17.04;101050.31;5014612;28;20103;-70
2021/06/17 09:24:52;;;;;;;5.00;4.50;;;;;;;37.18;17.70;101045.53;5010577;28;20026;-70
2021/06/17 09:27:23;;;;;;;6.55;4.63;;;;;;;37.07;18.09;101034.38;5009429;28;20035;-69
2021/06/17 09:29:52;;;;;;;4.78;4.45;;;;;;;37.15;18.07;101038.66;5006459;28;20383;-70
2021/06/17 09:32:33;;;;;;;5.65;4.88;;;;;;;36.01;18.66;101039.41;5023584;28;20396;-69
2021/06/17 09:34:59;;;;;;;5.20;3.88;;;;;;;36.38;19.20;101036.63;5012456;28;20033;-70
2021/06/17 09:37:35;;;;;;;6.00;4.05;;;;;;;36.05;19.04;101029.72;5016942;28;20037;-71
2021/06/17 09:40:45;;;;;;;4.60;4.00;;;;;;;35.49;19.34;101017.16;5026404;28;20405;-70
2021/06/17 09:43:19;;;;;;;4.70;4.30;;;;;;;36.28;20.03;101020.03;4947348;28;20039;-70
2021/06/17 09:46:00;;;;;;;4.40;4.10;;;;;;;35.59;20.09;101017.47;4946890;28;20440;-70
2021/06/17 09:48:39;;;;;;;11.63;5.10;;;;;;;34.08;20.63;101011.81;4989698;28;20045;-70
2021/06/17 09:51:26;;;;;;;7.00;3.25;;;;;;;34.40;20.86;101014.63;5010766;28;20095;-71
2021/06/17 09:53:54;;;;;;;4.93;3.88;;;;;;;34.38;21.22;101024.84;5010817;28;20391;-69
2021/06/17 09:56:31;;;;;;;8.63;4.28;;;;;;;33.42;21.76;101020.13;5002586;28;20128;-71
2021/06/17 09:58:57;;;;;;;5.95;4.90;;;;;;;33.96;20.95;101004.56;5028317;28;20668;-71
2021/06/17 10:01:34;;;;;;;5.32;3.60;;;;;;;33.77;21.01;101003.59;5010058;28;20145;-71
2021/06/17 10:04:10;;;;;;;7.50;4.28;;;;;;;33.77;21.10;101000.88;5012629;28;20045;-71
2021/06/17 10:06:38;;;;;;;4.45;4.05;;;;;;;33.58;22.77;100997.97;5008666;28;20484;-71
2021/06/17 10:09:23;;;;;;;4.22;3.92;;;;;;;34.18;20.94;101005.13;5012567;28;20528;-70
2021/06/17 10:11:49;;;;;;;4.63;4.00;;;;;;;34.29;21.91;101009.88;5014173;28;20088;-71
2021/06/17 10:14:14;;;;;;;4.78;3.83;;;;;;;35.24;21.71;101006.31;5014100;28;20034;-68
2021/06/17 10:16:42;;;;;;;5.40;3.90;;;;;;;35.74;20.46;101000.78;5007643;28;20045;-69
2021/06/17 10:19:12;;;;;;;8.55;3.63;;;;;;;36.02;20.43;101002.97;5008022;28;20042;-70
2021/06/17 10:21:41;;;;;;;5.13;4.25;;;;;;;35.14;19.64;100995.94;5011080;28;20049;-69
2021/06/17 10:24:25;;;;;;;7.00;3.55;;;;;;;34.00;20.56;100995.78;5016360;28;20055;-69
2021/06/17 10:26:59;;;;;;;7.25;4.13;;;;;;;33.50;20.96;100978.41;5006536;28;113056;-70
2021/06/17 10:29:29;;;;;;;7.20;3.85;;;;;;;33.91;21.79;100971.88;5009117;28;20156;-70
2021/06/17 10:31:55;;;;;;;;;;;;;;;33.83;20.87;100962.06;5015148;28;20113;-70
2021/06/17 10:34:24;;;;;;;4.60;3.90;;;;;;;34.06;20.00;100973.25;5005210;28;19924;-69
2021/06/17 10:37:26;;;;;;;6.07;3.97;;;;;;;34.40;20.41;100984.78;5012045;28;20470;-69
2021/06/17 10:40:09;;;;;;;4.38;3.28;;;;;;;34.49;20.65;100978.03;4990160;28;20558;-71
2021/06/17 10:42:43;;;;;;;9.07;3.97;;;;;;;34.77;20.12;100975.97;5022066;28;20033;-70
2021/06/17 10:45:17;;;;;;;7.63;3.33;;;;;;;34.35;20.05;100971.03;5013006;28;20037;-69
2021/06/17 10:47:44;;;;;;;11.88;3.50;;;;;;;34.37;19.84;100978.94;5012151;28;20408;-70
2021/06/17 10:50:22;;;;;;;3.42;3.13;;;;;;;34.93;20.00;100977.31;5018992;28;20041;-70
2021/06/17 10:53:14;;;;;;;3.90;3.60;;;;;;;33.73;20.67;100962.53;5012786;28;20037;-70
2021/06/17 10:55:55;;;;;;;5.75;3.22;;;;;;;33.87;20.10;100963.31;5013817;28;20029;-70
2021/06/17 10:58:46;;;;;;;3.80;3.13;;;;;;;34.23;19.42;100961.91;5008102;28;20100;-71
2021/06/17 11:01:39;;;;;;;4.03;2.90;;;;;;;34.72;18.56;100968.50;5007717;28;20359;-71
2021/06/17 11:04:07;;;;;;;3.85;2.53;;;;;;;34.19;18.11;100968.81;4992431;28;20478;-71
2021/06/17 11:06:49;;;;;;;7.05;3.92;;;;;;;34.60;18.41;100971.09;5007728;28;20038;-70
2021/06/17 11:09:39;;;;;;;4.53;2.92;;;;;;;34.97;19.54;100968.50;5009942;28;20044;-71
2021/06/17 11:12:19;;;;;;;3.50;3.20;;;;;;;35.53;18.94;100971.34;5008209;28;20038;-70
2021/06/17 11:14:47;;;;;;;4.78;2.95;;;;;;;35.85;17.98;100980.22;5006151;28;20084;-71
2021/06/17 11:17:34;;;;;;;3.55;3.25;;;;;;;35.89;18.22;100981.38;5007582;28;20076;-71
2021/06/17 11:20:21;;;;;;;3.10;2.65;;;;;;;35.25;18.57;100976.19;5009579;28;20041;-71
2021/06/17 11:22:50;;;;;;;2.72;2.53;;;;;;;35.39;18.81;100979.59;5005159;28;20510;-71
2021/06/17 11:25:16;;;;;;;2.50;2.30;;;;;;;35.47;18.13;100973.09;5006321;28;20117;-71
2021/06/17 11:28:11;;;;;;;6.97;2.90;;;;;;;36.81;17.37;100973.00;5007394;28;20053;-71
2021/06/17 11:30:43;;;;;;;5.25;2.65;;;;;;;36.16;17.11;100978.31;5009111;28;20073;-70